Celina, Tennessee
Current Conditions -  °F | °C
As of 11:55 AM on Monday 24 Nov 2014 (Local Time) from KSRB Reporting Station
Broken Clouds Broken Clouds  
Wind Chill: 17°   Ceiling: 5500
Heat Index: 17°   Visibility: 10mi
Dew Point:   Wind: 12mph
Humidity: 59%   Direction: 290°WNW
Pressure: 29.74"   Gusts: NA
Location:  36.55°N, 85.51°W
Report Text: KSRB 241755Z AUTO 29010KT 250V320 10SM FEW038 SCT044 BKN055 17/09 A2974 RMK
Loading
Personal Weather Stations






























Interactive Weather Map New forecast layout! Learn more

10-Day Weather Forecast

Advertisements
Track Severe Weather on mobile